Time;durP1;ratioP1;P1;durP2;ratioP2;P2;SDS_P1;SDS_P2;PMS_P1;PMS_P2;Temp;Humidity;BMP_temperature;BMP_pressure;BME280_temperature;BME280_humidity;BME280_pressure;Samples;Min_cycle;Max_cycle;Signal;HPM_P1;HPM_P2
2021/05/25 00:01:22;;;;;;;57.43;2.70;;;10.10;1.00;;;;;;5135285;27;20561;-67
2021/05/25 00:03:49;;;;;;;57.57;2.53;;;10.10;1.00;;;;;;5134786;27;20533;-67
2021/05/25 00:06:15;;;;;;;57.43;2.30;;;10.00;1.00;;;;;;5135123;27;20446;-66
2021/05/25 00:08:42;;;;;;;57.47;2.33;;;10.00;1.00;;;;;;5134967;27;20451;-66
2021/05/25 00:11:09;;;;;;;57.43;2.40;;;9.90;1.00;;;;;;5135001;27;20503;-66
2021/05/25 00:13:36;;;;;;;57.60;2.60;;;9.90;1.00;;;;;;5134428;27;20566;-67
2021/05/25 00:16:02;;;;;;;57.17;2.20;;;9.90;1.00;;;;;;5134879;27;20535;-67
2021/05/25 00:18:29;;;;;;;57.27;2.20;;;9.90;1.00;;;;;;5134715;27;20460;-67
2021/05/25 00:20:55;;;;;;;57.23;2.30;;;9.80;1.00;;;;;;5134874;27;20474;-67
2021/05/25 00:23:21;;;;;;;57.40;2.50;;;9.70;1.00;;;;;;5134113;27;20511;-67
2021/05/25 00:25:48;;;;;;;57.37;2.40;;;9.70;1.00;;;;;;5134577;27;20830;-66
2021/05/25 00:28:16;;;;;;;57.80;2.83;;;9.60;1.00;;;;;;5134631;27;20979;-66
2021/05/25 00:30:42;;;;;;;57.70;2.23;;;9.60;1.00;;;;;;5134782;27;20823;-67
2021/05/25 00:33:09;;;;;;;57.40;2.40;;;9.60;1.00;;;;;;5134077;27;20506;-67
2021/05/25 00:35:39;;;;;;;57.67;2.30;;;9.50;1.00;;;;;;5134203;27;20485;-67
2021/05/25 00:38:06;;;;;;;57.40;2.40;;;9.50;1.00;;;;;;5134414;27;20886;-68
2021/05/25 00:40:32;;;;;;;57.57;2.50;;;9.50;1.00;;;;;;5134407;27;20547;-67
2021/05/25 00:42:59;;;;;;;57.57;2.50;;;9.40;1.00;;;;;;5134000;27;20901;-67
2021/05/25 00:45:26;;;;;;;57.50;2.40;;;9.40;1.00;;;;;;5133937;27;20478;-67
2021/05/25 00:47:52;;;;;;;57.50;2.40;;;9.40;1.00;;;;;;5134306;27;20536;-66
2021/05/25 00:50:21;;;;;;;57.40;2.43;;;9.40;1.00;;;;;;5133983;27;20488;-67
2021/05/25 00:52:49;;;;;;;57.57;2.50;;;9.40;1.00;;;;;;5133625;27;20557;-67
2021/05/25 00:55:17;;;;;;;57.17;2.40;;;9.30;1.00;;;;;;5133463;27;20521;-67
2021/05/25 00:57:44;;;;;;;57.47;2.40;;;9.30;1.00;;;;;;5133874;27;20450;-67
2021/05/25 01:00:12;;;;;;;57.50;2.33;;;9.30;1.00;;;;;;5133879;27;20489;-66
2021/05/25 01:02:40;;;;;;;57.60;2.40;;;9.30;1.00;;;;;;5133486;27;20547;-66
2021/05/25 01:05:10;;;;;;;57.63;2.47;;;9.30;1.00;;;;;;5133927;27;20870;-67
2021/05/25 01:07:36;;;;;;;57.57;2.40;;;9.20;1.00;;;;;;5133929;27;20574;-66
2021/05/25 01:10:03;;;;;;;57.37;2.43;;;9.20;1.00;;;;;;5133714;27;20538;-68
2021/05/25 01:12:32;;;;;;;57.70;2.40;;;9.20;1.00;;;;;;5133305;27;20505;-67
2021/05/25 01:15:04;;;;;;;57.47;2.33;;;9.20;1.00;;;;;;5133892;27;20472;-67
2021/05/25 01:17:31;;;;;;;57.53;2.53;;;9.20;1.00;;;;;;5133561;27;21074;-67
2021/05/25 01:20:00;;;;;;;57.50;2.40;;;9.20;1.00;;;;;;5133938;27;20473;-67
2021/05/25 01:22:27;;;;;;;57.43;2.37;;;9.20;1.00;;;;;;5133326;27;20559;-67
2021/05/25 01:24:54;;;;;;;57.57;2.43;;;9.20;1.00;;;;;;5133579;27;20446;-67
2021/05/25 01:27:20;;;;;;;57.43;2.50;;;9.20;1.00;;;;;;5133781;27;20532;-67
2021/05/25 01:29:47;;;;;;;57.70;2.47;;;9.20;1.00;;;;;;5133469;27;20818;-67
2021/05/25 01:32:13;;;;;;;57.33;2.57;;;9.20;1.00;;;;;;5133059;27;20472;-67
2021/05/25 01:34:40;;;;;;;57.57;2.37;;;9.10;1.00;;;;;;5133464;27;20488;-67
2021/05/25 01:37:06;;;;;;;57.70;2.47;;;9.10;1.00;;;;;;5133680;27;20473;-67
2021/05/25 01:39:33;;;;;;;57.43;2.70;;;9.10;1.00;;;;;;5133675;27;20495;-66
2021/05/25 01:41:59;;;;;;;57.57;2.43;;;9.10;1.00;;;;;;5132838;27;20507;-66
2021/05/25 01:44:26;;;;;;;57.57;2.60;;;9.10;1.00;;;;;;5132977;27;20498;-66
2021/05/25 01:46:52;;;;;;;57.33;2.60;;;9.00;1.00;;;;;;5133148;27;20544;-67
2021/05/25 01:49:20;;;;;;;57.73;2.50;;;9.00;1.00;;;;;;5133554;27;20446;-67
2021/05/25 01:51:47;;;;;;;57.67;2.73;;;9.00;1.00;;;;;;5132867;27;20994;-67
2021/05/25 01:54:14;;;;;;;57.47;2.50;;;9.00;1.00;;;;;;5132401;27;20562;-67
2021/05/25 01:56:41;;;;;;;57.80;2.50;;;8.90;1.00;;;;;;5132948;27;20458;-66
2021/05/25 01:59:08;;;;;;;57.57;2.60;;;9.00;1.00;;;;;;5132997;27;20443;-67
2021/05/25 02:01:34;;;;;;;57.80;2.70;;;9.00;1.00;;;;;;5133076;27;20466;-68
2021/05/25 02:04:00;;;;;;;57.47;2.43;;;8.90;1.00;;;;;;5132249;27;20483;-66
2021/05/25 02:06:27;;;;;;;57.60;2.40;;;8.90;1.00;;;;;;5132853;27;20499;-66
2021/05/25 02:08:54;;;;;;;57.47;2.60;;;9.00;1.00;;;;;;5132184;27;20244;-67
2021/05/25 02:11:21;;;;;;;57.80;2.47;;;9.10;1.00;;;;;;5132745;27;20465;-66
2021/05/25 02:13:48;;;;;;;57.17;2.50;;;9.10;1.00;;;;;;5132036;27;20478;-66
2021/05/25 02:16:17;;;;;;;57.33;2.70;;;9.20;1.00;;;;;;5132824;27;20450;-66
2021/05/25 02:18:45;;;;;;;57.60;2.70;;;9.20;1.00;;;;;;5132871;27;20453;-67
2021/05/25 02:21:13;;;;;;;57.23;2.50;;;9.30;1.00;;;;;;5132688;27;20484;-67
2021/05/25 02:23:40;;;;;;;57.57;2.60;;;9.30;1.00;;;;;;5132304;27;20526;-67
2021/05/25 02:26:07;;;;;;;57.13;2.50;;;9.40;1.00;;;;;;5132437;27;20453;-67
2021/05/25 02:28:34;;;;;;;57.27;2.50;;;9.40;1.00;;;;;;5132871;27;20528;-66
2021/05/25 02:31:01;;;;;;;57.47;2.40;;;9.40;1.00;;;;;;5132798;27;20884;-66
2021/05/25 02:33:28;;;;;;;57.67;2.57;;;9.40;1.00;;;;;;5132388;27;20454;-67
2021/05/25 02:35:56;;;;;;;57.77;3.00;;;9.40;1.00;;;;;;5132452;27;20548;-67
2021/05/25 02:38:24;;;;;;;57.47;2.40;;;9.40;1.00;;;;;;5132469;27;20446;-68
2021/05/25 02:40:51;;;;;;;58.10;2.90;;;9.30;1.00;;;;;;5132618;27;20559;-67
2021/05/25 02:43:19;;;;;;;57.40;2.50;;;9.30;1.00;;;;;;5132297;27;20833;-68
2021/05/25 02:45:46;;;;;;;57.27;2.20;;;9.20;1.00;;;;;;5131948;27;20442;-67
2021/05/25 02:48:13;;;;;;;57.37;2.30;;;9.10;1.00;;;;;;5132419;27;20792;-67
2021/05/25 02:50:40;;;;;;;57.77;2.47;;;9.10;1.00;;;;;;5132284;27;20446;-67
2021/05/25 02:53:08;;;;;;;57.47;2.30;;;9.10;1.00;;;;;;5131946;27;20550;-67
2021/05/25 02:55:36;;;;;;;57.50;2.33;;;9.00;1.00;;;;;;5132204;27;20484;-66
2021/05/25 02:58:05;;;;;;;57.50;2.33;;;9.00;1.00;;;;;;5132319;27;20478;-67
2021/05/25 03:00:33;;;;;;;57.50;2.40;;;9.00;1.00;;;;;;5132154;27;20441;-67
2021/05/25 03:03:01;;;;;;;57.47;2.03;;;8.90;1.00;;;;;;5131915;27;20553;-67
2021/05/25 03:05:28;;;;;;;57.58;2.42;;;8.90;1.00;;;;;;5132043;27;20531;-67
2021/05/25 03:07:57;;;;;;;57.27;2.30;;;8.90;1.00;;;;;;5132159;27;20644;-67
2021/05/25 03:10:26;;;;;;;57.50;2.20;;;9.00;1.00;;;;;;5132065;27;20447;-67
2021/05/25 03:12:53;;;;;;;57.27;2.30;;;9.00;1.00;;;;;;5131710;27;20549;-67
2021/05/25 03:15:23;;;;;;;57.33;2.23;;;9.10;1.00;;;;;;5132288;27;20489;-67
2021/05/25 03:17:49;;;;;;;57.43;2.40;;;9.10;1.00;;;;;;5132229;27;20450;-67
2021/05/25 03:20:16;;;;;;;57.40;2.30;;;9.10;1.00;;;;;;5134806;27;20817;-67
2021/05/25 03:22:44;;;;;;;57.20;2.30;;;9.10;1.00;;;;;;5135840;27;20483;-67
2021/05/25 03:25:12;;;;;;;57.47;2.50;;;9.10;1.00;;;;;;5135629;27;20933;-67
2021/05/25 03:27:39;;;;;;;57.57;2.40;;;9.00;1.00;;;;;;5136293;27;20446;-67
2021/05/25 03:30:09;;;;;;;57.17;2.40;;;9.00;1.00;;;;;;5135804;27;20488;-67
2021/05/25 03:32:35;;;;;;;57.50;2.37;;;8.90;1.00;;;;;;5135273;27;20468;-67
2021/05/25 03:35:02;;;;;;;57.43;2.43;;;8.90;1.00;;;;;;5135181;27;20608;-67
2021/05/25 03:37:28;;;;;;;57.27;2.30;;;8.90;1.00;;;;;;5135863;27;20494;-66
2021/05/25 03:39:55;;;;;;;57.47;2.40;;;8.90;1.00;;;;;;5135740;27;20476;-67
2021/05/25 03:42:21;;;;;;;57.27;2.33;;;8.80;1.00;;;;;;5135257;27;20524;-67
2021/05/25 03:44:48;;;;;;;57.27;2.30;;;8.80;1.00;;;;;;5135590;27;20534;-67
2021/05/25 03:47:14;;;;;;;57.73;2.50;;;8.80;1.00;;;;;;5135329;27;20528;-67
2021/05/25 03:49:40;;;;;;;57.40;2.20;;;8.80;1.00;;;;;;5135321;27;20528;-67
2021/05/25 03:52:07;;;;;;;57.23;2.50;;;8.70;1.00;;;;;;5135153;27;20462;-67
2021/05/25 03:54:36;;;;;;;57.60;2.30;;;8.70;1.00;;;;;;5135308;27;20481;-67
2021/05/25 03:57:09;;;;;;;57.50;2.40;;;8.70;1.00;;;;;;5135159;27;20491;-67
2021/05/25 03:59:35;;;;;;;57.47;2.40;;;8.80;1.00;;;;;;5135334;27;20446;-67
2021/05/25 04:02:02;;;;;;;57.47;2.30;;;8.80;1.00;;;;;;5135106;27;20461;-66
2021/05/25 04:04:30;;;;;;;57.60;2.30;;;8.80;1.00;;;;;;5135137;27;20812;-67
2021/05/25 04:06:56;;;;;;;57.57;2.40;;;8.80;1.00;;;;;;5135074;27;20877;-66
2021/05/25 04:09:22;;;;;;;57.47;2.50;;;8.90;1.00;;;;;;5134892;27;20452;-68
2021/05/25 04:11:49;;;;;;;57.40;2.40;;;8.90;1.00;;;;;;5134988;27;20763;-66
2021/05/25 04:14:16;;;;;;;57.43;2.20;;;9.10;1.00;;;;;;5134639;27;20482;-67
2021/05/25 04:16:42;;;;;;;57.67;2.67;;;9.20;1.00;;;;;;5134757;27;20446;-67
2021/05/25 04:19:09;;;;;;;57.43;2.20;;;9.20;1.00;;;;;;5134896;27;20490;-67
2021/05/25 04:21:35;;;;;;;57.17;2.40;;;9.20;1.00;;;;;;5134889;27;20508;-67
2021/05/25 04:24:02;;;;;;;57.60;2.40;;;9.30;1.00;;;;;;5134125;27;20479;-67
2021/05/25 04:26:29;;;;;;;57.37;2.60;;;9.30;1.00;;;;;;5134606;27;20534;-67
2021/05/25 04:28:55;;;;;;;57.47;2.33;;;9.30;1.00;;;;;;5134570;27;20534;-67
2021/05/25 04:31:23;;;;;;;57.13;2.30;;;9.30;1.00;;;;;;5133868;27;20495;-67
2021/05/25 04:33:49;;;;;;;57.33;2.50;;;9.30;1.00;;;;;;5134074;27;20486;-66
2021/05/25 04:36:17;;;;;;;57.40;2.40;;;9.30;1.00;;;;;;5134566;27;20443;-67
2021/05/25 04:38:43;;;;;;;57.30;2.30;;;9.30;1.00;;;;;;5134437;27;20449;-68
2021/05/25 04:41:10;;;;;;;57.33;2.23;;;9.40;1.00;;;;;;5134317;27;20478;-67
2021/05/25 04:43:36;;;;;;;57.57;2.33;;;9.40;1.00;;;;;;5133696;27;20460;-67
2021/05/25 04:46:03;;;;;;;57.40;2.30;;;9.40;1.00;;;;;;5134402;27;20489;-67
2021/05/25 04:48:30;;;;;;;57.47;2.27;;;9.40;1.00;;;;;;5134413;27;20491;-68
2021/05/25 04:50:57;;;;;;;57.40;2.50;;;9.40;1.00;;;;;;5134422;27;20884;-67
2021/05/25 04:53:23;;;;;;;57.30;2.20;;;9.50;1.00;;;;;;5133650;27;20868;-67
2021/05/25 04:55:49;;;;;;;57.60;2.40;;;9.50;1.00;;;;;;5133827;27;20482;-67
2021/05/25 04:58:16;;;;;;;57.17;2.30;;;9.50;1.00;;;;;;5133879;27;20537;-68
2021/05/25 05:00:42;;;;;;;57.17;2.27;;;9.60;1.00;;;;;;5134247;27;20535;-68
2021/05/25 05:03:08;;;;;;;57.40;2.50;;;9.60;1.00;;;;;;5133760;27;20501;-68
2021/05/25 05:05:36;;;;;;;57.07;2.40;;;9.80;1.00;;;;;;5134044;27;20442;-68
2021/05/25 05:08:02;;;;;;;57.50;2.40;;;9.90;1.00;;;;;;5133861;27;20451;-67
2021/05/25 05:10:29;;;;;;;57.23;2.33;;;10.00;1.00;;;;;;5133856;27;20883;-68
2021/05/25 05:12:55;;;;;;;57.50;2.40;;;10.00;1.00;;;;;;5133456;27;20486;-69
2021/05/25 05:15:21;;;;;;;57.03;2.40;;;10.10;1.00;;;;;;5133754;27;20590;-68
2021/05/25 05:17:49;;;;;;;57.43;2.40;;;10.10;1.00;;;;;;5133750;27;20849;-67
2021/05/25 05:20:16;;;;;;;57.37;2.13;;;10.10;1.00;;;;;;5133635;27;20459;-68
2021/05/25 05:22:44;;;;;;;57.50;2.57;;;10.10;1.00;;;;;;5133359;27;20840;-68
2021/05/25 05:25:12;;;;;;;57.50;2.20;;;10.10;1.00;;;;;;5133368;27;20443;-68
2021/05/25 05:27:39;;;;;;;58.00;2.80;;;10.00;1.00;;;;;;5133915;27;20486;-68
2021/05/25 05:30:07;;;;;;;57.40;2.27;;;10.00;1.00;;;;;;5133624;27;20469;-68
2021/05/25 05:32:34;;;;;;;57.43;2.30;;;10.00;1.00;;;;;;5133092;27;20464;-69
2021/05/25 05:35:00;;;;;;;57.37;2.27;;;9.90;1.00;;;;;;5133132;27;20567;-68
2021/05/25 05:37:27;;;;;;;57.37;2.50;;;9.90;1.00;;;;;;5133314;27;20538;-68
2021/05/25 05:39:54;;;;;;;58.47;3.63;;;9.90;1.00;;;;;;5132699;27;20478;-68
2021/05/25 05:42:20;;;;;;;57.50;2.40;;;9.90;1.00;;;;;;5132316;27;20470;-66
2021/05/25 05:44:48;;;;;;;57.33;2.30;;;9.90;1.00;;;;;;5132995;27;20944;-67
2021/05/25 05:47:14;;;;;;;57.17;2.20;;;10.00;1.00;;;;;;5132979;27;20470;-66
2021/05/25 05:49:40;;;;;;;57.30;2.30;;;10.10;1.00;;;;;;5133022;27;21034;-69
2021/05/25 05:52:07;;;;;;;57.23;2.20;;;10.10;1.00;;;;;;5132672;27;20553;-66
2021/05/25 05:54:33;;;;;;;57.97;2.70;;;10.20;1.00;;;;;;5132739;27;20570;-66
2021/05/25 05:57:01;;;;;;;57.27;2.30;;;10.30;1.00;;;;;;5133382;27;20528;-65
2021/05/25 05:59:27;;;;;;;57.17;2.00;;;10.50;1.00;;;;;;5133072;27;20447;-68
2021/05/25 06:01:54;;;;;;;57.27;2.30;;;10.50;1.00;;;;;;5132716;27;20557;-66
2021/05/25 06:04:20;;;;;;;57.40;2.20;;;10.50;1.00;;;;;;5132810;27;20458;-66
2021/05/25 06:06:46;;;;;;;57.20;2.20;;;10.60;1.00;;;;;;5132941;27;20535;-66
2021/05/25 06:09:13;;;;;;;57.37;2.10;;;10.70;1.00;;;;;;5132826;27;20467;-65
2021/05/25 06:11:39;;;;;;;57.13;2.47;;;10.80;1.00;;;;;;5132901;27;20471;-66
2021/05/25 06:14:06;;;;;;;57.03;2.23;;;10.80;1.00;;;;;;5132434;27;20491;-66
2021/05/25 06:16:34;;;;;;;57.17;2.40;;;10.90;1.00;;;;;;5132761;27;20440;-66
2021/05/25 06:19:00;;;;;;;57.13;2.13;;;10.90;1.00;;;;;;5132774;27;20451;-65
2021/05/25 06:21:26;;;;;;;57.13;2.20;;;10.90;1.00;;;;;;5132709;27;21038;-66
2021/05/25 06:23:53;;;;;;;56.93;2.20;;;10.90;1.00;;;;;;5132151;27;20477;-66
2021/05/25 06:26:21;;;;;;;57.27;2.20;;;11.00;1.00;;;;;;5132660;27;20538;-66
2021/05/25 06:28:47;;;;;;;57.50;2.40;;;11.10;1.00;;;;;;5132762;27;20491;-66
2021/05/25 06:31:15;;;;;;;57.20;2.10;;;11.20;1.00;;;;;;5132441;27;20534;-66
2021/05/25 06:33:41;;;;;;;56.97;2.27;;;11.30;1.00;;;;;;5132119;27;20600;-65
2021/05/25 06:36:08;;;;;;;57.00;2.20;;;11.30;1.00;;;;;;5132284;27;20868;-65
2021/05/25 06:38:34;;;;;;;57.17;2.30;;;11.30;1.00;;;;;;5132787;27;20451;-65
2021/05/25 06:41:00;;;;;;;57.17;2.30;;;11.40;1.00;;;;;;5132684;27;20987;-67
2021/05/25 06:43:27;;;;;;;57.30;2.37;;;11.60;1.00;;;;;;5132093;27;20452;-67
2021/05/25 06:45:53;;;;;;;57.17;2.33;;;11.70;1.00;;;;;;5132229;27;20480;-67
2021/05/25 06:48:20;;;;;;;57.17;2.47;;;11.80;1.00;;;;;;5132510;27;20471;-66
2021/05/25 06:50:47;;;;;;;57.17;2.40;;;11.90;1.00;;;;;;5132527;27;20585;-66
2021/05/25 06:53:15;;;;;;;57.13;2.40;;;12.10;1.00;;;;;;5132289;27;20464;-66
2021/05/25 06:55:41;;;;;;;57.30;2.30;;;12.20;1.00;;;;;;5135986;27;20505;-67
2021/05/25 06:58:08;;;;;;;57.40;2.60;;;12.20;1.00;;;;;;5136585;27;20903;-67
2021/05/25 07:00:34;;;;;;;57.30;2.40;;;12.30;1.00;;;;;;5136211;27;20440;-67
2021/05/25 07:03:00;;;;;;;57.30;2.30;;;12.30;1.00;;;;;;5135986;27;20516;-66
2021/05/25 07:05:28;;;;;;;57.80;2.50;;;12.30;1.00;;;;;;5136120;27;20512;-66
2021/05/25 07:07:54;;;;;;;57.07;2.20;;;12.50;1.00;;;;;;5136668;27;20823;-67
2021/05/25 07:10:20;;;;;;;57.07;2.10;;;12.50;1.00;;;;;;5136104;27;20984;-65
2021/05/25 07:12:47;;;;;;;57.33;2.10;;;12.60;1.00;;;;;;5135929;27;20846;-66
2021/05/25 07:15:14;;;;;;;57.40;2.10;;;12.60;1.00;;;;;;5135685;27;20483;-66
2021/05/25 07:17:45;;;;;;;57.17;2.20;;;12.60;1.00;;;;;;5136138;27;20921;-65
2021/05/25 07:20:12;;;;;;;57.70;2.50;;;12.60;1.00;;;;;;5136367;27;20875;-66
2021/05/25 07:22:40;;;;;;;57.30;2.40;;;12.70;1.00;;;;;;5135604;27;20457;-65
2021/05/25 07:25:07;;;;;;;57.20;2.10;;;12.80;1.00;;;;;;5135694;27;20532;-67
2021/05/25 07:27:34;;;;;;;57.20;2.30;;;12.90;1.00;;;;;;5135946;27;20479;-66
2021/05/25 07:30:00;;;;;;;57.07;2.17;;;13.00;1.00;;;;;;5135890;27;20482;-66
2021/05/25 07:32:26;;;;;;;57.30;2.20;;;13.00;1.00;;;;;;5135208;27;20540;-67
2021/05/25 07:34:53;;;;;;;57.13;2.10;;;13.10;1.00;;;;;;5135492;27;20924;-66
2021/05/25 07:37:19;;;;;;;57.20;2.27;;;13.30;1.00;;;;;;5135715;27;20448;-66
2021/05/25 07:39:46;;;;;;;57.27;2.50;;;13.50;1.00;;;;;;5135867;27;20493;-66
2021/05/25 07:42:13;;;;;;;57.20;2.10;;;13.50;1.00;;;;;;5135043;27;20460;-66
2021/05/25 07:44:39;;;;;;;57.37;2.20;;;13.50;1.00;;;;;;5135324;27;20480;-66
2021/05/25 07:47:06;;;;;;;57.20;2.30;;;13.40;1.00;;;;;;5135252;27;20542;-67
2021/05/25 07:49:34;;;;;;;57.17;2.30;;;13.30;1.00;;;;;;5135263;27;20487;-67
2021/05/25 07:52:00;;;;;;;56.97;2.13;;;13.20;1.00;;;;;;5134947;27;20555;-67
2021/05/25 07:54:27;;;;;;;57.27;2.30;;;13.20;1.00;;;;;;5135303;27;20472;-67
2021/05/25 07:56:54;;;;;;;57.73;2.33;;;13.10;1.00;;;;;;5135253;27;20449;-67
2021/05/25 07:59:20;;;;;;;58.47;2.20;;;13.10;1.00;;;;;;5135048;27;20452;-67
2021/05/25 08:01:47;;;;;;;57.50;2.50;;;13.10;1.00;;;;;;5135154;27;20980;-68
2021/05/25 08:04:13;;;;;;;57.17;2.30;;;13.20;1.00;;;;;;5135036;27;20440;-67
2021/05/25 08:06:39;;;;;;;57.10;2.40;;;13.20;1.00;;;;;;5134046;27;20551;-67
2021/05/25 08:09:07;;;;;;;57.20;2.27;;;13.20;1.00;;;;;;5135027;27;20565;-66
2021/05/25 08:11:33;;;;;;;56.67;2.20;;;13.20;1.00;;;;;;5135166;27;20465;-67
2021/05/25 08:14:01;;;;;;;57.13;2.10;;;13.20;1.00;;;;;;5134335;27;20440;-66
2021/05/25 08:16:29;;;;;;;57.07;2.00;;;13.20;1.00;;;;;;5135178;27;20532;-67
2021/05/25 08:19:07;;;;;;;57.07;2.20;;;13.10;1.00;;;;;;5134970;27;20505;-67
2021/05/25 08:21:35;;;;;;;57.13;2.30;;;13.00;1.00;;;;;;5134959;27;20778;-68
2021/05/25 08:24:01;;;;;;;57.20;2.07;;;13.10;1.00;;;;;;5134682;27;20582;-67
2021/05/25 08:26:27;;;;;;;57.17;2.10;;;13.30;1.00;;;;;;5134636;27;20961;-67
2021/05/25 08:28:54;;;;;;;56.97;2.00;;;13.40;1.00;;;;;;5134821;27;20479;-66
2021/05/25 08:31:22;;;;;;;57.00;2.10;;;13.40;1.00;;;;;;5134741;27;20445;-67
2021/05/25 08:33:49;;;;;;;57.07;2.27;;;13.40;1.00;;;;;;5133985;27;21023;-67
2021/05/25 08:36:17;;;;;;;57.37;2.20;;;13.40;1.00;;;;;;5134553;27;20887;-67
2021/05/25 08:38:44;;;;;;;57.23;2.20;;;13.30;1.00;;;;;;5134429;27;20440;-67
2021/05/25 08:41:11;;;;;;;57.23;2.10;;;13.30;1.00;;;;;;5134233;27;20440;-67
2021/05/25 08:43:37;;;;;;;56.97;2.10;;;13.30;1.00;;;;;;5133753;27;20533;-68
2021/05/25 08:46:04;;;;;;;56.97;2.20;;;13.40;1.00;;;;;;5134267;27;20456;-67
2021/05/25 08:48:32;;;;;;;57.07;2.13;;;13.50;1.00;;;;;;5134412;27;20456;-67
2021/05/25 08:51:00;;;;;;;56.83;2.30;;;13.50;1.00;;;;;;5134447;27;20452;-67
2021/05/25 08:53:27;;;;;;;57.20;2.20;;;13.60;1.00;;;;;;5134383;27;20550;-66
2021/05/25 08:55:54;;;;;;;57.03;1.80;;;13.70;1.00;;;;;;5134180;27;20481;-66
2021/05/25 08:58:22;;;;;;;56.97;2.10;;;13.60;1.00;;;;;;5134291;27;20869;-67
2021/05/25 09:00:50;;;;;;;57.10;2.10;;;13.60;1.00;;;;;;5134256;27;20450;-67
2021/05/25 09:03:18;;;;;;;56.93;2.03;;;13.60;1.00;;;;;;5133672;27;20473;-67
2021/05/25 09:05:55;;;;;;;57.17;2.23;;;13.60;1.00;;;;;;5133847;27;20469;-67
2021/05/25 09:08:21;;;;;;;57.10;2.10;;;13.60;1.00;;;;;;5133884;27;20539;-66
2021/05/25 09:10:49;;;;;;;57.17;2.20;;;13.60;1.00;;;;;;5134083;27;20472;-66
2021/05/25 09:13:17;;;;;;;56.83;2.07;;;13.60;1.00;;;;;;5133526;27;20807;-66
2021/05/25 09:15:46;;;;;;;57.27;2.10;;;13.70;1.00;;;;;;5133393;27;20563;-66
2021/05/25 09:18:13;;;;;;;57.07;2.27;;;13.60;1.00;;;;;;5133435;27;20821;-67
2021/05/25 09:20:42;;;;;;;57.17;2.03;;;13.60;1.00;;;;;;5133642;27;20447;-66
2021/05/25 09:23:11;;;;;;;57.17;2.20;;;13.50;1.00;;;;;;5133632;27;20492;-67
2021/05/25 09:25:46;;;;;;;56.97;2.10;;;13.40;1.00;;;;;;5133391;27;20540;-66
2021/05/25 09:28:14;;;;;;;57.13;2.30;;;13.30;1.00;;;;;;5133614;27;20811;-66
2021/05/25 09:30:42;;;;;;;57.40;2.30;;;13.20;1.00;;;;;;5133718;27;20449;-67
2021/05/25 09:33:09;;;;;;;56.93;2.10;;;13.20;1.00;;;;;;5132812;27;20464;-65
2021/05/25 09:35:37;;;;;;;57.13;2.10;;;13.20;1.00;;;;;;5133234;27;20848;-67
2021/05/25 09:38:08;;;;;;;57.27;2.17;;;13.20;1.00;;;;;;5133616;27;20478;-66
2021/05/25 09:40:36;;;;;;;56.67;2.10;;;13.30;1.00;;;;;;5133437;27;20815;-66
2021/05/25 09:43:10;;;;;;;56.97;2.20;;;13.50;1.00;;;;;;5132901;27;20499;-66
2021/05/25 09:45:37;;;;;;;57.03;2.10;;;13.40;1.00;;;;;;5132743;27;20472;-67
2021/05/25 09:48:04;;;;;;;57.10;2.20;;;13.50;1.00;;;;;;5133318;27;20475;-68
2021/05/25 09:50:31;;;;;;;56.50;2.10;;;13.60;1.00;;;;;;5133310;27;21000;-67
2021/05/25 09:53:06;;;;;;;56.87;2.00;;;13.60;1.00;;;;;;5132844;27;20457;-66
2021/05/25 09:55:47;;;;;;;57.00;2.10;;;13.70;1.00;;;;;;5132731;27;20571;-66
2021/05/25 09:58:14;;;;;;;56.97;2.10;;;13.90;1.00;;;;;;5132809;27;20458;-67
2021/05/25 10:00:43;;;;;;;57.40;2.30;;;14.00;1.00;;;;;;5133267;27;20922;-67
2021/05/25 10:03:19;;;;;;;57.20;2.20;;;14.10;1.00;;;;;;5132755;27;20494;-66
2021/05/25 10:05:48;;;;;;;56.97;2.10;;;14.30;1.00;;;;;;5132819;27;20432;-67
2021/05/25 10:08:15;;;;;;;56.77;2.10;;;14.60;1.00;;;;;;5132884;27;20444;-67
2021/05/25 10:10:43;;;;;;;57.07;2.13;;;15.00;1.00;;;;;;5132714;27;20445;-67
2021/05/25 10:13:10;;;;;;;56.93;2.20;;;15.30;1.00;;;;;;5132534;27;20464;-67
2021/05/25 10:15:38;;;;;;;57.17;2.10;;;15.70;1.00;;;;;;5132667;27;20537;-67
2021/05/25 10:18:16;;;;;;;57.27;2.10;;;16.30;1.00;;;;;;5132942;27;20541;-67
2021/05/25 10:20:43;;;;;;;57.23;2.20;;;17.10;1.00;;;;;;5132857;27;20507;-68
2021/05/25 10:23:10;;;;;;;57.27;2.30;;;17.70;1.00;;;;;;5132229;27;20466;-67
2021/05/25 10:25:39;;;;;;;57.17;2.27;;;18.30;1.00;;;;;;5132881;27;20439;-67
2021/05/25 10:28:10;;;;;;;57.27;2.30;;;18.40;1.00;;;;;;5132663;27;20992;-67
2021/05/25 10:30:39;;;;;;;57.13;2.20;;;18.90;1.00;;;;;;5136599;27;20463;-66
2021/05/25 10:33:39;;;;;;;57.37;2.30;;;18.80;1.00;;;;;;5136534;27;20466;-67
2021/05/25 10:36:10;;;;;;;56.77;2.10;;;18.10;1.00;;;;;;5136874;27;20570;-67
2021/05/25 10:38:56;;;;;;;57.30;2.20;;;17.40;1.00;;;;;;5136534;27;20472;-67
2021/05/25 10:41:30;;;;;;;56.83;2.20;;;16.80;1.00;;;;;;5136793;27;20487;-67
2021/05/25 10:43:57;;;;;;;57.00;2.30;;;16.20;1.00;;;;;;5136379;27;20922;-66
2021/05/25 10:46:27;;;;;;;57.07;2.17;;;15.60;1.00;;;;;;5136511;27;20925;-66
2021/05/25 10:49:15;;;;;;;57.13;2.20;;;15.10;1.00;;;;;;5136744;27;20476;-67
2021/05/25 10:52:16;;;;;;;57.20;2.10;;;14.30;1.00;;;;;;5136676;27;21016;-67
2021/05/25 10:54:56;;;;;;;56.97;2.30;;;13.60;1.00;;;;;;5136342;27;20983;-66
2021/05/25 10:57:50;;;;;;;57.53;2.57;;;13.30;1.00;;;;;;5136529;27;20544;-67
2021/05/25 11:00:29;;;;;;;57.03;2.10;;;13.60;1.00;;;;;;5136421;27;20928;-67
2021/05/25 11:02:58;;;;;;;57.20;2.30;;;13.80;1.00;;;;;;5135949;27;20475;-66
2021/05/25 11:05:48;;;;;;;57.17;2.20;;;13.70;1.00;;;;;;5136254;27;20527;-66
2021/05/25 11:08:30;;;;;;;57.20;2.30;;;13.70;1.00;;;;;;5136367;27;20523;-67
2021/05/25 11:11:11;;;;;;;57.13;2.40;;;14.60;1.00;;;;;;5136132;27;20452;-66
2021/05/25 11:13:47;;;;;;;57.20;2.23;;;14.90;1.00;;;;;;5134505;27;20450;-66
2021/05/25 11:16:17;;;;;;;57.17;2.27;;;15.10;1.00;;;;;;5134335;27;20534;-67
2021/05/25 11:18:48;;;;;;;56.93;2.30;;;16.30;1.00;;;;;;5134225;27;20453;-66
2021/05/25 11:24:31;;;;;;;57.07;2.00;;;17.80;1.00;;;;;;5120373;27;20442;-66
2021/05/25 11:27:01;;;;;;;57.20;2.20;;;17.10;1.00;;;;;;5134470;27;20478;-66
2021/05/25 11:29:28;;;;;;;56.97;2.07;;;16.20;1.00;;;;;;5134666;27;20445;-65
2021/05/25 11:31:57;;;;;;;57.23;2.20;;;15.40;1.00;;;;;;5135445;27;20976;-67
2021/05/25 11:34:25;;;;;;;57.07;2.40;;;14.70;1.00;;;;;;5135768;27;20448;-66
2021/05/25 11:37:01;;;;;;;57.27;2.17;;;13.90;1.00;;;;;;5135800;27;20466;-66
2021/05/25 11:39:28;;;;;;;57.43;2.37;;;13.30;1.00;;;;;;5135865;27;20945;-67
2021/05/25 11:41:55;;;;;;;57.30;2.20;;;12.90;1.00;;;;;;5135676;27;20551;-67
2021/05/25 11:44:30;;;;;;;57.07;2.20;;;12.60;1.00;;;;;;5135584;27;20501;-68
2021/05/25 11:46:56;;;;;;;57.20;2.30;;;13.00;1.00;;;;;;5135377;27;20520;-66
2021/05/25 11:49:24;;;;;;;57.17;2.17;;;14.00;1.00;;;;;;5135747;27;20458;-67
2021/05/25 11:51:51;;;;;;;57.10;2.30;;;15.40;1.00;;;;;;5135231;27;20467;-68
2021/05/25 11:54:20;;;;;;;56.97;2.17;;;16.80;1.00;;;;;;5135256;27;20442;-67
2021/05/25 11:56:48;;;;;;;57.27;2.30;;;18.20;1.00;;;;;;5135148;27;20542;-67
2021/05/25 11:59:20;;;;;;;57.10;2.33;;;18.30;1.00;;;;;;5135229;27;20451;-67
2021/05/25 12:01:48;;;;;;;57.03;2.30;;;18.10;1.00;;;;;;5135550;27;20812;-67
2021/05/25 12:04:16;;;;;;;57.07;2.20;;;18.80;1.00;;;;;;5135138;27;20535;-66
2021/05/25 12:06:54;;;;;;;57.17;2.27;;;;;;;;;;5135060;27;20964;-67
2021/05/25 12:09:24;;;;;;;58.00;2.87;;;20.80;1.00;;;;;;5131431;27;20535;-66
2021/05/25 12:11:55;;;;;;;57.27;2.03;;;21.00;1.00;;;;;;5133730;27;20925;-67
2021/05/25 12:14:28;;;;;;;57.17;2.00;;;;;;;;;;5134387;27;20988;-67
2021/05/25 12:16:57;;;;;;;57.23;2.30;;;22.10;1.00;;;;;;5133523;27;20456;-67
2021/05/25 12:19:23;;;;;;;57.37;2.20;;;22.60;1.00;;;;;;5134717;27;20961;-66
2021/05/25 12:21:59;;;;;;;57.50;2.20;;;22.90;1.00;;;;;;5131659;27;20472;-66
2021/05/25 12:24:30;;;;;;;57.37;2.80;;;22.60;1.00;;;;;;5134236;27;20456;-67
2021/05/25 12:26:57;;;;;;;56.93;2.00;;;23.10;1.00;;;;;;5134615;27;20453;-66
2021/05/25 12:29:26;;;;;;;56.87;1.90;;;23.50;1.00;;;;;;5134633;27;20535;-66
2021/05/25 12:31:52;;;;;;;57.37;2.50;;;23.80;1.00;;;;;;5131716;27;20563;-65
2021/05/25 12:34:20;;;;;;;57.20;2.20;;;24.30;1.00;;;;;;5133731;27;20503;-67
2021/05/25 12:36:54;;;;;;;57.13;2.10;;;;;;;;;;5134311;27;20468;-65
2021/05/25 12:39:35;;;;;;;56.93;1.97;;;25.10;1.00;;;;;;5134322;27;20448;-67
2021/05/25 12:42:11;;;;;;;57.10;2.10;;;24.00;1.00;;;;;;5133920;27;20872;-68
2021/05/25 12:44:37;;;;;;;56.87;2.10;;;23.10;1.00;;;;;;5134040;27;20882;-65
2021/05/25 12:47:07;;;;;;;57.20;2.20;;;21.90;1.00;;;;;;5133749;27;21044;-65
2021/05/25 12:49:35;;;;;;;57.10;2.03;;;21.10;1.00;;;;;;5134084;27;20450;-65
2021/05/25 12:52:22;;;;;;;57.17;2.07;;;20.00;1.00;;;;;;5129444;27;20472;-65
2021/05/25 12:55:03;;;;;;;57.07;2.27;;;18.90;1.00;;;;;;5133646;27;20483;-65
2021/05/25 12:57:43;;;;;;;57.17;2.13;;;18.90;1.00;;;;;;5133646;27;20444;-66
2021/05/25 13:00:11;;;;;;;57.30;2.20;;;19.60;1.00;;;;;;5133924;27;20472;-65
2021/05/25 13:02:42;;;;;;;56.80;2.00;;;20.70;1.00;;;;;;5133290;27;20544;-67